• Join FlightAware (Why Join?)
  • Login
  • US Flag 
08:09AM EDT


 

Airport Tracker/Info


-or-


 

Live Flight TrackerFlight Track Log ✈ UAL4407 ✈ 09-Jun-2013 ✈ KEWR - KOMA

Flight Track Log - Related Links

Times and Time Zones

All times are in EDT time to prevent confusion due to time zone crossing. See the UAL4407 flight status page for this flight to view local times or setup timezone preferences in your user account.

Time Position Orientation Groundspeed Altitude Reporting Facility
EDT Latitude Longitude Course Direction KTS MPH feet Rate Location/Type
08:27AM 40.6500 -74.1833 232° Southwest 184 212 1,700  Level New York TRACON
08:29AM 40.5928 -74.2803 232° Southwest 232 267 6,500 2,640 Climbing New York Center
08:30AM 40.6300 -74.3586 302° West 226 260 9,200 1,920 Climbing New York Center
08:31AM 40.6650 -74.4453 298° West 253 291 10,400 1,380 Climbing New York Center
08:32AM 40.7031 -74.5542 295° West 312 359 12,000 1,560 Climbing New York Center
08:33AM 40.7394 -74.6547 296° West 337 388 13,600 1,800 Climbing New York Center
08:34AM 40.7642 -74.7822 284° West 342 394 15,600 1,800 Climbing New York Center
08:35AM 40.7581 -74.9050 266° West 336 387 17,300 1,500 Climbing New York Center
08:36AM 40.7497 -75.0169 264° West 336 387 18,600 1,500 Climbing New York Center
08:37AM 40.7436 -75.1342 266° West 336 387 20,300 1,680 Climbing New York Center
08:38AM 40.7347 -75.2569 265° West 336 387 22,000 1,680 Climbing New York Center
08:39AM 40.7278 -75.3797 266° West 331 381 23,700 1,860 Climbing New York Center
08:40AM 40.7192 -75.4969 265° West 326 375 25,700 1,860 Climbing New York Center
08:41AM 40.7119 -75.6197 266° West 332 382 27,500 1,320 Climbing New York Center
08:42AM 40.7050 -75.7369 266° West 326 375 28,400 1,200 Climbing New York Center
08:43AM 40.6981 -75.8542 266° West 326 375 30,000 1,800 Climbing New York Center
08:44AM 40.6819 -75.9869 261° West 326 375 32,100 1,740 Climbing New York Center
08:45AM 40.6747 -76.0986 265° West 326 375 33,600 1,260 Climbing New York Center
08:46AM 40.6675 -76.2131 265° West 326 375 34,600 900 Climbing New York Center
08:47AM 40.6767 -76.3258 276° West 321 369 35,400 660 Climbing New York Center
08:48AM 40.6942 -76.4422 281° West 321 369 36,000 300 Climbing New York Center
08:49AM 40.7131 -76.5672 281° West 334 384 36,000  Level New York Center
08:50AM 40.7317 -76.6975 281° West 347 399 36,000  Level New York Center
08:51AM 40.7517 -76.8361 281° West 370 426 36,000  Level New York Center
08:52AM 40.7717 -76.9750 281° West 382 440 36,000  Level New York Center
08:53AM 40.7917 -77.1111 281° West 382 440 36,000  Level New York Center
08:54AM 40.8133 -77.2475 282° West 382 440 36,000  Level New York Center
08:55AM 40.8297 -77.3672 280° West 382 440 36,000  Level New York Center
08:56AM 40.8492 -77.5033 281° West 376 433 36,000  Level New York Center
08:57AM 40.8683 -77.6425 280° West 376 433 36,000  Level New York Center
08:58AM 40.8906 -77.8144 280° West 392 451 36,000  Level Cleveland Center
08:59AM 40.9106 -77.9564 281° West 392 451 36,000  Level Cleveland Center
09:00AM 40.9283 -78.1014 279° West 392 451 36,000  Level Cleveland Center
09:01AM 40.9458 -78.2408 279° West 387 445 36,000  Level Cleveland Center
09:02AM 40.9653 -78.3861 280° West 392 451 36,000  Level Cleveland Center
09:03AM 40.9847 -78.5283 280° West 392 451 36,000  Level Cleveland Center
09:04AM 41.0017 -78.6708 279° West 392 451 36,000  Level Cleveland Center
09:05AM 41.0167 -78.8108 278° West 392 451 36,000  Level Cleveland Center
09:06AM 41.0333 -78.9508 279° West 387 445 36,000  Level Cleveland Center
09:07AM 41.0497 -79.0853 279° West 387 445 36,000  Level Cleveland Center
09:08AM 41.0661 -79.2281 279° West 387 445 36,000  Level Cleveland Center
09:09AM 41.0781 -79.3628 277° West 387 445 36,000  Level Cleveland Center
09:10AM 41.0961 -79.5003 280° West 387 445 36,000  Level Cleveland Center
09:11AM 41.1119 -79.6378 279° West 387 445 36,000  Level Cleveland Center
09:12AM 41.1253 -79.7756 277° West 387 445 36,000  Level Cleveland Center
09:13AM 41.1389 -79.9242 277° West 392 451 36,000  Level Cleveland Center
09:14AM 41.1583 -80.0619 281° West 392 451 36,000  Level Cleveland Center
09:15AM 41.1714 -80.2053 277° West 392 451 36,000  Level Cleveland Center
09:16AM 41.1864 -80.3486 278° West 392 451 36,000  Level Cleveland Center
09:17AM 41.2011 -80.5003 277° West 404 465 36,000  Level Cleveland Center
09:18AM 41.2158 -80.6439 278° West 404 465 36,000  Level Cleveland Center
09:19AM 41.2303 -80.7875 278° West 409 471 36,000  Level Cleveland Center
09:20AM 41.2444 -80.9394 277° West 409 471 36,000  Level Cleveland Center
09:21AM 41.2586 -81.0803 278° West 402 463 36,000  Level Cleveland Center
09:22AM 41.2722 -81.2406 276° West 402 463 36,000  Level Cleveland Center
09:23AM 41.2881 -81.3872 278° West 402 463 36,000  Level Cleveland Center
09:24AM 41.3036 -81.5283 278° West 402 463 36,000  Level Cleveland Center
09:25AM 41.3169 -81.6750 277° West 407 468 36,000  Level Cleveland Center
09:26AM 41.3300 -81.8219 277° West 407 468 36,000  Level Cleveland Center
09:27AM 41.3428 -81.9689 277° West 407 468 36,000  Level Cleveland Center
09:28AM 41.3556 -82.1156 277° West 407 468 36,000  Level Cleveland Center
09:29AM 41.3619 -82.2514 274° West 407 468 36,000  Level Cleveland Center
09:30AM 41.3719 -82.4150 275° West 407 468 36,000  Level Cleveland Center
09:31AM 41.3800 -82.5617 274° West 407 468 36,000  Level Cleveland Center
09:32AM 41.3878 -82.7086 274° West 407 468 36,000  Level Cleveland Center
09:33AM 41.3953 -82.8556 274° West 407 468 36,000  Level Cleveland Center
09:34AM 41.4050 -83.0028 275° West 407 468 36,000  Level Cleveland Center
09:35AM 41.4119 -83.1525 274° West 407 468 36,000  Level Cleveland Center
09:36AM 41.4192 -83.2997 274° West 407 468 36,000  Level Cleveland Center
09:37AM 41.4281 -83.4467 275° West 407 468 36,000  Level Cleveland Center
09:38AM 41.4325 -83.5967 272° West 407 468 36,000  Level Cleveland Center
09:39AM 41.4411 -83.7439 275° West 407 468 36,000  Level Cleveland Center
09:40AM 41.4472 -83.8936 273° West 407 468 36,000  Level Cleveland Center
09:41AM 41.4533 -84.0408 273° West 407 468 36,000  Level Cleveland Center
09:42AM 41.4644 -84.2358 274° West 407 468 36,000  Level Chicago Center
09:43AM 41.4703 -84.3861 273° West 408 470 36,000  Level Chicago Center
09:44AM 41.4767 -84.5381 273° West 410 472 36,000  Level Chicago Center
09:45AM 41.4831 -84.6889 273° West 409 471 36,000  Level Chicago Center
09:46AM 41.4881 -84.8378 273° West 406 467 36,000  Level Chicago Center
09:47AM 41.4931 -84.9869 273° West 403 464 36,000  Level Chicago Center
09:49AM 41.4986 -85.1686 272° West 407 468 36,000  Level Chicago Center
09:50AM 41.5031 -85.3233 272° West 411 473 36,000  Level Chicago Center
09:51AM 41.5078 -85.4819 272° West 416 479 36,000  Level Chicago Center
09:52AM 41.5136 -85.6375 273° West 415 478 36,000  Level Chicago Center
09:53AM 41.5178 -85.7939 272° West 420 483 36,000  Level Chicago Center
09:54AM 41.5225 -85.9489 272° West 419 482 36,000  Level Chicago Center
09:55AM 41.5264 -86.1050 272° West 421 484 36,000  Level Chicago Center
09:56AM 41.5286 -86.2622 271° West 423 487 36,000  Level Chicago Center
09:57AM 41.5311 -86.4183 271° West 424 488 36,000  Level Chicago Center
09:58AM 41.5336 -86.6031 271° West 416 479 36,000  Level Chicago Center
09:59AM 41.5372 -86.7569 272° West 422 486 36,000  Level Chicago Center
10:00AM 41.5394 -86.9108 271° West 419 482 36,000  Level Chicago Center
10:01AM 41.5403 -87.0697 270° West 425 489 36,000  Level Chicago Center
10:02AM 41.5425 -87.2242 271° West 421 484 36,000  Level Chicago Center
10:03AM 41.5431 -87.4106 270° West 419 482 36,000  Level Chicago Center
10:04AM 41.5442 -87.5642 271° West 418 481 36,000  Level Chicago Center
10:05AM 41.5450 -87.7156 270° West 412 474 36,000  Level Chicago Center
10:06AM 41.5461 -87.8628 271° West 403 464 36,000  Level Chicago Center
10:07AM 41.5464 -88.0078 270° West 400 460 36,000  Level Chicago Center
10:08AM 41.5475 -88.1789 271° West 397 457 36,000  Level Chicago Center
10:09AM 41.5467 -88.3214 270° West 394 453 36,000  Level Chicago Center
10:10AM 41.5472 -88.4644 270° West 391 450 36,000  Level Chicago Center
10:11AM 41.5475 -88.6092 270° West 393 452 36,000  Level Chicago Center
10:12AM 41.5478 -88.7864 270° West 400 460 36,000  Level Chicago Center
10:13AM 41.5483 -88.9361 270° West 404 465 36,000  Level Chicago Center
10:14AM 41.5478 -89.0861 270° West 408 470 36,000  Level Chicago Center
10:15AM 41.5511 -89.2389 272° West 416 479 36,000  Level Chicago Center
10:16AM 41.5556 -89.3903 272° West 412 474 36,000  Level Chicago Center
10:17AM 41.5581 -89.5700 271° West 413 475 36,000  Level Chicago Center
10:18AM 41.5611 -89.7231 272° West 415 478 36,000  Level Chicago Center
10:19AM 41.5625 -89.8758 271° West 415 478 36,000  Level Chicago Center
10:20AM 41.5642 -90.0267 271° West 411 473 36,000  Level Chicago Center
10:22AM 41.5664 -90.1797 271° West 414 476 36,000  Level Chicago Center
10:23AM 41.5678 -90.3361 271° West 420 483 36,000  Level Chicago Center
10:24AM 41.5683 -90.5225 270° West 420 483 36,000  Level Chicago Center
10:25AM 41.5703 -90.6575 271° West 420 483 36,000  Level Chicago Center
10:26AM 41.5711 -90.8450 270° West 423 487 36,000  Level Chicago Center
10:27AM 41.5714 -91.0033 270° West 427 491 36,000  Level Chicago Center
10:28AM 41.5722 -91.1597 270° West 424 488 36,000  Level Chicago Center
10:29AM 41.5728 -91.3144 270° West 422 486 36,000  Level Chicago Center
10:30AM 41.5719 -91.4639 270° West 411 473 36,000  Level Chicago Center
10:31AM 41.5725 -91.6097 270° West 400 460 36,000  Level Chicago Center
10:32AM 41.5722 -91.7850 270° West 396 456 36,000  Level Chicago Center
10:33AM 41.5717 -91.9292 270° West 391 450 36,000  Level Chicago Center
10:34AM 41.5703 -92.0742 269° West 393 452 36,000  Level Chicago Center
10:35AM 41.5697 -92.2194 270° West 394 453 36,000  Level Chicago Center
10:36AM 41.5686 -92.3642 269° West 392 451 36,000  Level Chicago Center
10:37AM 41.5667 -92.5450 269° West 408 470 36,000  Level Chicago Center
10:38AM 41.5664 -92.6303 270° West 404 465 36,000  Level Minneapolis Center
10:39AM 41.5639 -92.7831 269° West 411 473 36,000  Level Minneapolis Center
10:40AM 41.5622 -92.9425 269° West 425 489 36,000 -540 Level Minneapolis Center
10:41AM 41.5606 -93.1011 269° West 430 495 35,000 -1,020 Descending Minneapolis Center
10:42AM 41.5578 -93.2981 269° West 442 509 34,000 -540 Descending Minneapolis Center
10:43AM 41.5544 -93.4700 269° West 458 527 34,000  Level Minneapolis Center
10:44AM 41.5522 -93.6392 269° West 462 532 34,000 -360 Level Minneapolis Center
10:45AM 41.5483 -93.8078 268° West 461 531 33,300 -840 Descending Minneapolis Center
10:46AM 41.5406 -93.9717 266° West 451 519 32,300 -1,140 Descending Minneapolis Center
10:47AM 41.5153 -94.1650 260° West 447 514 31,000 -1,800 Descending Minneapolis Center
10:48AM 41.4964 -94.3200 261° West 435 501 28,700 -2,880 Descending Minneapolis Center
10:49AM 41.4783 -94.4775 261° West 431 496 25,200 -3,540 Descending Minneapolis Center
10:50AM 41.4625 -94.6303 262° West 418 481 21,500 -3,660 Descending Minneapolis Center
10:51AM 41.4261 -94.7669 250° West 392 451 17,700 -2,700 Descending Minneapolis Center
10:52AM 41.3761 -94.8908 242° Southwest 384 442 16,000 -840 Descending Minneapolis Center
10:53AM 41.3403 -95.0475 253° West 373 429 16,000 -540 Level Minneapolis Center
10:54AM 41.3153 -95.1842 256° West 367 422 15,000 -1,980 Descending Minneapolis Center
10:55AM 41.2822 -95.3106 251° West 361 415 12,000 -2,460 Descending Minneapolis Center
10:56AM 41.2544 -95.4194 251° West 302 348 10,000 -2,100 Descending Minneapolis Center
10:57AM 41.2294 -95.5114 250° West 248 285 7,800 -2,460 Descending Minneapolis Center
10:58AM 41.2033 -95.5961 248° West 271 312 4,900 -2,340 Descending Minneapolis Center
10:59AM 41.1831 -95.6886 254° West 239 275 3,200 -1,020 Descending Minneapolis Center
11:00AM 41.1839 -95.7633 271° West 209 241 3,000 -240 Descending Minneapolis Center
11:01AM 41.2208 -95.8181 312° West 202 232 2,700 -480 Descending Minneapolis Center
11:02AM 41.2481 -95.8447 324° Northwest 119 137 2,100 -720 Descending Minneapolis Center
11:03AM 41.2772 -95.8744 323° Northwest 127 146 1,400 -540 Descending Minneapolis Center
11:04AM 41.3078 -95.9003 328° Northwest 140 161 1,000 -360 Descending Minneapolis Center
11:06AM 41.3032 -95.8941 90° East  Level Estimated